sensor_id;sensor_type;location;lat;lon;timestamp;P1;durP1;ratioP1;P2;durP2;ratioP2
38843;SDS011;24596;48.080;8.362;2022-12-10T00:00:33;55.05;;;25.58;;
38843;SDS011;24596;48.080;8.362;2022-12-10T00:02:59;63.13;;;25.95;;
38843;SDS011;24596;48.080;8.362;2022-12-10T00:05:24;57.38;;;24.33;;
38843;SDS011;24596;48.080;8.362;2022-12-10T00:07:49;56.30;;;26.20;;
38843;SDS011;24596;48.080;8.362;2022-12-10T00:10:14;71.25;;;26.40;;
38843;SDS011;24596;48.080;8.362;2022-12-10T00:12:40;56.47;;;25.95;;
38843;SDS011;24596;48.080;8.362;2022-12-10T00:15:05;64.85;;;27.85;;
38843;SDS011;24596;48.080;8.362;2022-12-10T00:17:30;63.65;;;26.33;;
38843;SDS011;24596;48.080;8.362;2022-12-10T00:19:56;68.75;;;27.73;;
38843;SDS011;24596;48.080;8.362;2022-12-10T00:22:21;66.00;;;26.63;;
38843;SDS011;24596;48.080;8.362;2022-12-10T00:24:46;61.47;;;27.08;;
38843;SDS011;24596;48.080;8.362;2022-12-10T00:27:12;67.68;;;27.45;;
38843;SDS011;24596;48.080;8.362;2022-12-10T00:29:37;67.60;;;27.27;;
38843;SDS011;24596;48.080;8.362;2022-12-10T00:32:02;57.45;;;25.98;;
38843;SDS011;24596;48.080;8.362;2022-12-10T00:34:30;62.25;;;26.98;;
38843;SDS011;24596;48.080;8.362;2022-12-10T00:36:55;61.08;;;26.65;;
38843;SDS011;24596;48.080;8.362;2022-12-10T00:39:21;61.22;;;26.70;;
38843;SDS011;24596;48.080;8.362;2022-12-10T00:41:46;54.47;;;24.23;;
38843;SDS011;24596;48.080;8.362;2022-12-10T00:44:12;56.75;;;25.50;;
38843;SDS011;24596;48.080;8.362;2022-12-10T00:46:37;58.50;;;26.52;;
38843;SDS011;24596;48.080;8.362;2022-12-10T00:49:06;61.15;;;25.70;;
38843;SDS011;24596;48.080;8.362;2022-12-10T00:51:34;60.67;;;25.37;;
38843;SDS011;24596;48.080;8.362;2022-12-10T00:54:00;67.88;;;27.45;;
38843;SDS011;24596;48.080;8.362;2022-12-10T00:56:30;58.15;;;24.50;;
38843;SDS011;24596;48.080;8.362;2022-12-10T00:58:56;68.60;;;26.90;;
38843;SDS011;24596;48.080;8.362;2022-12-10T01:03:51;59.25;;;25.35;;
38843;SDS011;24596;48.080;8.362;2022-12-10T01:06:27;66.25;;;26.75;;
38843;SDS011;24596;48.080;8.362;2022-12-10T01:08:53;67.72;;;27.65;;
38843;SDS011;24596;48.080;8.362;2022-12-10T01:11:20;62.97;;;27.40;;
38843;SDS011;24596;48.080;8.362;2022-12-10T01:13:46;63.08;;;26.08;;
38843;SDS011;24596;48.080;8.362;2022-12-10T01:16:13;64.05;;;27.20;;
38843;SDS011;24596;48.080;8.362;2022-12-10T01:18:39;68.78;;;27.48;;
38843;SDS011;24596;48.080;8.362;2022-12-10T01:21:06;67.97;;;26.80;;
38843;SDS011;24596;48.080;8.362;2022-12-10T01:23:36;62.92;;;26.00;;
38843;SDS011;24596;48.080;8.362;2022-12-10T01:26:02;64.80;;;27.65;;
38843;SDS011;24596;48.080;8.362;2022-12-10T01:28:32;68.20;;;28.50;;
38843;SDS011;24596;48.080;8.362;2022-12-10T01:31:04;67.70;;;26.00;;
38843;SDS011;24596;48.080;8.362;2022-12-10T01:33:30;59.05;;;25.58;;
38843;SDS011;24596;48.080;8.362;2022-12-10T01:35:56;55.83;;;24.17;;
38843;SDS011;24596;48.080;8.362;2022-12-10T01:38:21;63.55;;;25.23;;
38843;SDS011;24596;48.080;8.362;2022-12-10T01:40:47;57.35;;;23.50;;
38843;SDS011;24596;48.080;8.362;2022-12-10T01:43:13;64.65;;;25.30;;
38843;SDS011;24596;48.080;8.362;2022-12-10T01:45:39;62.58;;;25.48;;
38843;SDS011;24596;48.080;8.362;2022-12-10T01:48:04;57.63;;;24.75;;
38843;SDS011;24596;48.080;8.362;2022-12-10T01:50:29;63.70;;;25.67;;
38843;SDS011;24596;48.080;8.362;2022-12-10T01:52:54;57.97;;;24.42;;
38843;SDS011;24596;48.080;8.362;2022-12-10T01:58:04;64.72;;;24.45;;
38843;SDS011;24596;48.080;8.362;2022-12-10T02:00:30;69.45;;;25.27;;
38843;SDS011;24596;48.080;8.362;2022-12-10T02:03:01;58.75;;;24.67;;
38843;SDS011;24596;48.080;8.362;2022-12-10T02:05:43;60.92;;;23.63;;
38843;SDS011;24596;48.080;8.362;2022-12-10T02:08:24;57.83;;;24.42;;
38843;SDS011;24596;48.080;8.362;2022-12-10T02:16:11;55.53;;;22.95;;
38843;SDS011;24596;48.080;8.362;2022-12-10T02:18:39;59.90;;;24.27;;
38843;SDS011;24596;48.080;8.362;2022-12-10T02:21:08;58.85;;;23.42;;
38843;SDS011;24596;48.080;8.362;2022-12-10T02:23:39;64.88;;;26.23;;
38843;SDS011;24596;48.080;8.362;2022-12-10T02:26:20;71.07;;;28.35;;
38843;SDS011;24596;48.080;8.362;2022-12-10T02:29:04;70.35;;;25.60;;
38843;SDS011;24596;48.080;8.362;2022-12-10T02:31:31;64.50;;;25.08;;
38843;SDS011;24596;48.080;8.362;2022-12-10T02:33:57;80.32;;;31.40;;
38843;SDS011;24596;48.080;8.362;2022-12-10T02:36:24;71.75;;;27.05;;
38843;SDS011;24596;48.080;8.362;2022-12-10T02:38:50;70.80;;;27.55;;
38843;SDS011;24596;48.080;8.362;2022-12-10T02:41:21;63.08;;;25.00;;
38843;SDS011;24596;48.080;8.362;2022-12-10T02:43:48;68.07;;;25.85;;
38843;SDS011;24596;48.080;8.362;2022-12-10T02:46:14;62.60;;;26.05;;
38843;SDS011;24596;48.080;8.362;2022-12-10T02:48:40;61.47;;;25.98;;
38843;SDS011;24596;48.080;8.362;2022-12-10T02:51:06;60.45;;;24.58;;
38843;SDS011;24596;48.080;8.362;2022-12-10T02:53:31;58.55;;;23.42;;
38843;SDS011;24596;48.080;8.362;2022-12-10T03:03:51;58.00;;;25.52;;
38843;SDS011;24596;48.080;8.362;2022-12-10T03:06:27;60.75;;;25.70;;
38843;SDS011;24596;48.080;8.362;2022-12-10T03:09:03;60.45;;;24.20;;
38843;SDS011;24596;48.080;8.362;2022-12-10T03:11:29;57.70;;;23.05;;
38843;SDS011;24596;48.080;8.362;2022-12-10T03:16:23;60.90;;;25.00;;
38843;SDS011;24596;48.080;8.362;2022-12-10T03:18:50;64.00;;;27.40;;
38843;SDS011;24596;48.080;8.362;2022-12-10T03:21:17;61.20;;;24.13;;
38843;SDS011;24596;48.080;8.362;2022-12-10T03:23:43;65.43;;;26.65;;
38843;SDS011;24596;48.080;8.362;2022-12-10T03:26:10;64.65;;;26.42;;
38843;SDS011;24596;48.080;8.362;2022-12-10T03:28:41;58.40;;;24.10;;
38843;SDS011;24596;48.080;8.362;2022-12-10T03:31:07;59.72;;;23.45;;
38843;SDS011;24596;48.080;8.362;2022-12-10T03:33:34;59.75;;;23.75;;
38843;SDS011;24596;48.080;8.362;2022-12-10T03:35:59;53.42;;;21.75;;
38843;SDS011;24596;48.080;8.362;2022-12-10T03:38:24;53.33;;;22.50;;
38843;SDS011;24596;48.080;8.362;2022-12-10T03:40:50;56.80;;;23.52;;
38843;SDS011;24596;48.080;8.362;2022-12-10T03:43:15;56.47;;;22.58;;
38843;SDS011;24596;48.080;8.362;2022-12-10T03:45:40;59.95;;;23.42;;
38843;SDS011;24596;48.080;8.362;2022-12-10T03:48:06;52.70;;;22.48;;
38843;SDS011;24596;48.080;8.362;2022-12-10T03:50:31;54.30;;;22.77;;
38843;SDS011;24596;48.080;8.362;2022-12-10T03:52:57;59.45;;;24.17;;
38843;SDS011;24596;48.080;8.362;2022-12-10T03:55:22;54.55;;;23.85;;
38843;SDS011;24596;48.080;8.362;2022-12-10T03:57:47;55.20;;;23.33;;
38843;SDS011;24596;48.080;8.362;2022-12-10T04:00:13;47.60;;;23.20;;
38843;SDS011;24596;48.080;8.362;2022-12-10T04:02:38;51.92;;;22.48;;
38843;SDS011;24596;48.080;8.362;2022-12-10T04:05:04;55.47;;;22.52;;
38843;SDS011;24596;48.080;8.362;2022-12-10T04:07:31;55.33;;;23.55;;
38843;SDS011;24596;48.080;8.362;2022-12-10T04:09:56;50.63;;;22.48;;
38843;SDS011;24596;48.080;8.362;2022-12-10T04:12:21;54.08;;;23.80;;
38843;SDS011;24596;48.080;8.362;2022-12-10T04:14:47;56.95;;;23.25;;
38843;SDS011;24596;48.080;8.362;2022-12-10T04:17:31;52.22;;;21.90;;
38843;SDS011;24596;48.080;8.362;2022-12-10T04:19:57;50.42;;;21.73;;
38843;SDS011;24596;48.080;8.362;2022-12-10T04:22:23;61.03;;;22.95;;
38843;SDS011;24596;48.080;8.362;2022-12-10T04:25:08;57.15;;;23.38;;
38843;SDS011;24596;48.080;8.362;2022-12-10T04:27:54;50.60;;;21.25;;
38843;SDS011;24596;48.080;8.362;2022-12-10T04:30:19;47.28;;;19.90;;
38843;SDS011;24596;48.080;8.362;2022-12-10T04:32:44;56.35;;;22.42;;
38843;SDS011;24596;48.080;8.362;2022-12-10T04:35:10;53.97;;;22.23;;
38843;SDS011;24596;48.080;8.362;2022-12-10T04:37:35;65.68;;;23.08;;
38843;SDS011;24596;48.080;8.362;2022-12-10T04:40:01;53.17;;;22.45;;
38843;SDS011;24596;48.080;8.362;2022-12-10T04:42:27;56.05;;;22.50;;
38843;SDS011;24596;48.080;8.362;2022-12-10T04:44:52;50.70;;;21.67;;
38843;SDS011;24596;48.080;8.362;2022-12-10T04:47:18;48.15;;;20.73;;
38843;SDS011;24596;48.080;8.362;2022-12-10T04:49:43;50.42;;;21.45;;
38843;SDS011;24596;48.080;8.362;2022-12-10T04:52:10;49.83;;;20.90;;
38843;SDS011;24596;48.080;8.362;2022-12-10T04:54:35;51.13;;;21.23;;
38843;SDS011;24596;48.080;8.362;2022-12-10T04:57:01;49.95;;;20.85;;
38843;SDS011;24596;48.080;8.362;2022-12-10T04:59:26;43.88;;;19.45;;
38843;SDS011;24596;48.080;8.362;2022-12-10T05:01:51;41.47;;;19.23;;
38843;SDS011;24596;48.080;8.362;2022-12-10T05:04:19;42.20;;;19.52;;
38843;SDS011;24596;48.080;8.362;2022-12-10T05:06:45;39.67;;;17.83;;
38843;SDS011;24596;48.080;8.362;2022-12-10T05:09:11;42.92;;;18.40;;
38843;SDS011;24596;48.080;8.362;2022-12-10T05:11:36;40.22;;;18.48;;
38843;SDS011;24596;48.080;8.362;2022-12-10T05:14:02;41.55;;;17.70;;
38843;SDS011;24596;48.080;8.362;2022-12-10T05:16:28;36.50;;;17.77;;
38843;SDS011;24596;48.080;8.362;2022-12-10T05:18:54;39.70;;;17.23;;
38843;SDS011;24596;48.080;8.362;2022-12-10T05:21:20;36.72;;;17.13;;
38843;SDS011;24596;48.080;8.362;2022-12-10T05:23:46;34.03;;;16.60;;
38843;SDS011;24596;48.080;8.362;2022-12-10T05:26:19;43.58;;;18.33;;
38843;SDS011;24596;48.080;8.362;2022-12-10T05:28:49;38.47;;;18.27;;
38843;SDS011;24596;48.080;8.362;2022-12-10T05:31:16;38.50;;;17.33;;
38843;SDS011;24596;48.080;8.362;2022-12-10T05:33:41;37.60;;;16.90;;
38843;SDS011;24596;48.080;8.362;2022-12-10T05:36:08;37.53;;;17.23;;
38843;SDS011;24596;48.080;8.362;2022-12-10T05:38:34;32.22;;;16.02;;
38843;SDS011;24596;48.080;8.362;2022-12-10T05:41:03;33.65;;;16.35;;
38843;SDS011;24596;48.080;8.362;2022-12-10T05:43:28;35.75;;;15.68;;
38843;SDS011;24596;48.080;8.362;2022-12-10T05:45:54;34.65;;;16.02;;
38843;SDS011;24596;48.080;8.362;2022-12-10T05:48:23;32.25;;;15.10;;
38843;SDS011;24596;48.080;8.362;2022-12-10T05:50:48;33.38;;;15.65;;
38843;SDS011;24596;48.080;8.362;2022-12-10T05:53:13;35.88;;;15.90;;
38843;SDS011;24596;48.080;8.362;2022-12-10T05:55:39;30.25;;;15.30;;
38843;SDS011;24596;48.080;8.362;2022-12-10T05:58:04;33.90;;;16.05;;
38843;SDS011;24596;48.080;8.362;2022-12-10T06:00:29;32.13;;;15.15;;
38843;SDS011;24596;48.080;8.362;2022-12-10T06:02:55;29.35;;;15.00;;
38843;SDS011;24596;48.080;8.362;2022-12-10T06:05:21;37.78;;;16.30;;
38843;SDS011;24596;48.080;8.362;2022-12-10T06:07:46;33.75;;;15.68;;
38843;SDS011;24596;48.080;8.362;2022-12-10T06:10:11;32.20;;;15.45;;
38843;SDS011;24596;48.080;8.362;2022-12-10T06:12:37;34.17;;;14.98;;
38843;SDS011;24596;48.080;8.362;2022-12-10T06:15:03;29.40;;;16.15;;
38843;SDS011;24596;48.080;8.362;2022-12-10T06:17:28;31.27;;;15.45;;
38843;SDS011;24596;48.080;8.362;2022-12-10T06:19:53;33.95;;;16.05;;
38843;SDS011;24596;48.080;8.362;2022-12-10T06:22:18;33.92;;;16.73;;
38843;SDS011;24596;48.080;8.362;2022-12-10T06:24:44;31.65;;;14.73;;
38843;SDS011;24596;48.080;8.362;2022-12-10T06:27:09;31.15;;;17.25;;
38843;SDS011;24596;48.080;8.362;2022-12-10T06:29:34;31.30;;;15.30;;
38843;SDS011;24596;48.080;8.362;2022-12-10T06:31:59;25.08;;;14.45;;
38843;SDS011;24596;48.080;8.362;2022-12-10T06:34:25;31.67;;;15.30;;
38843;SDS011;24596;48.080;8.362;2022-12-10T06:36:50;32.38;;;14.57;;
38843;SDS011;24596;48.080;8.362;2022-12-10T06:39:15;37.45;;;15.90;;
38843;SDS011;24596;48.080;8.362;2022-12-10T06:41:40;28.65;;;15.00;;
38843;SDS011;24596;48.080;8.362;2022-12-10T06:44:08;32.15;;;15.95;;
38843;SDS011;24596;48.080;8.362;2022-12-10T06:46:34;32.20;;;16.73;;
38843;SDS011;24596;48.080;8.362;2022-12-10T06:48:59;34.30;;;16.15;;
38843;SDS011;24596;48.080;8.362;2022-12-10T06:51:24;30.33;;;15.52;;
38843;SDS011;24596;48.080;8.362;2022-12-10T06:53:50;33.33;;;15.90;;
38843;SDS011;24596;48.080;8.362;2022-12-10T06:56:16;34.90;;;16.33;;
38843;SDS011;24596;48.080;8.362;2022-12-10T06:58:41;37.20;;;16.50;;
38843;SDS011;24596;48.080;8.362;2022-12-10T07:01:08;31.13;;;16.73;;
38843;SDS011;24596;48.080;8.362;2022-12-10T07:03:33;48.15;;;26.15;;
38843;SDS011;24596;48.080;8.362;2022-12-10T07:05:59;39.20;;;22.67;;
38843;SDS011;24596;48.080;8.362;2022-12-10T07:08:25;37.63;;;21.55;;
38843;SDS011;24596;48.080;8.362;2022-12-10T07:10:50;41.40;;;23.90;;
38843;SDS011;24596;48.080;8.362;2022-12-10T07:13:15;45.15;;;25.42;;
38843;SDS011;24596;48.080;8.362;2022-12-10T07:15:40;38.05;;;18.35;;
38843;SDS011;24596;48.080;8.362;2022-12-10T07:18:06;32.17;;;15.80;;
38843;SDS011;24596;48.080;8.362;2022-12-10T07:20:31;39.10;;;17.02;;
38843;SDS011;24596;48.080;8.362;2022-12-10T07:22:56;31.15;;;15.75;;
38843;SDS011;24596;48.080;8.362;2022-12-10T07:25:21;33.58;;;15.20;;
38843;SDS011;24596;48.080;8.362;2022-12-10T07:27:47;32.38;;;16.20;;
38843;SDS011;24596;48.080;8.362;2022-12-10T07:30:12;35.53;;;16.35;;
38843;SDS011;24596;48.080;8.362;2022-12-10T07:32:37;35.28;;;15.77;;
38843;SDS011;24596;48.080;8.362;2022-12-10T07:35:03;35.65;;;16.17;;
38843;SDS011;24596;48.080;8.362;2022-12-10T07:37:28;34.08;;;16.20;;
38843;SDS011;24596;48.080;8.362;2022-12-10T07:39:53;32.20;;;15.32;;
38843;SDS011;24596;48.080;8.362;2022-12-10T07:42:19;35.95;;;15.88;;
38843;SDS011;24596;48.080;8.362;2022-12-10T07:44:44;28.02;;;14.35;;
38843;SDS011;24596;48.080;8.362;2022-12-10T07:47:09;30.80;;;15.52;;
38843;SDS011;24596;48.080;8.362;2022-12-10T07:49:35;32.22;;;15.13;;
38843;SDS011;24596;48.080;8.362;2022-12-10T07:52:00;35.67;;;17.85;;
38843;SDS011;24596;48.080;8.362;2022-12-10T07:54:25;38.75;;;18.10;;
38843;SDS011;24596;48.080;8.362;2022-12-10T07:56:54;32.20;;;16.73;;
38843;SDS011;24596;48.080;8.362;2022-12-10T07:59:19;34.70;;;16.90;;
38843;SDS011;24596;48.080;8.362;2022-12-10T08:01:44;33.33;;;16.88;;
38843;SDS011;24596;48.080;8.362;2022-12-10T08:04:09;37.00;;;17.58;;
38843;SDS011;24596;48.080;8.362;2022-12-10T08:06:35;30.02;;;15.98;;
38843;SDS011;24596;48.080;8.362;2022-12-10T08:09:00;29.88;;;16.70;;
38843;SDS011;24596;48.080;8.362;2022-12-10T08:11:26;27.58;;;14.55;;
38843;SDS011;24596;48.080;8.362;2022-12-10T08:13:51;29.17;;;15.07;;
38843;SDS011;24596;48.080;8.362;2022-12-10T08:16:18;28.02;;;14.75;;
38843;SDS011;24596;48.080;8.362;2022-12-10T08:18:44;25.60;;;13.70;;
38843;SDS011;24596;48.080;8.362;2022-12-10T08:21:10;24.63;;;13.02;;
38843;SDS011;24596;48.080;8.362;2022-12-10T08:23:36;25.65;;;13.35;;
38843;SDS011;24596;48.080;8.362;2022-12-10T08:26:03;29.83;;;15.02;;
38843;SDS011;24596;48.080;8.362;2022-12-10T08:28:28;31.17;;;15.88;;
38843;SDS011;24596;48.080;8.362;2022-12-10T08:30:53;28.67;;;15.13;;
38843;SDS011;24596;48.080;8.362;2022-12-10T08:33:18;29.58;;;15.25;;
38843;SDS011;24596;48.080;8.362;2022-12-10T08:35:44;25.15;;;13.68;;
38843;SDS011;24596;48.080;8.362;2022-12-10T08:38:09;24.77;;;13.40;;
38843;SDS011;24596;48.080;8.362;2022-12-10T08:40:40;26.67;;;14.25;;
38843;SDS011;24596;48.080;8.362;2022-12-10T08:43:06;28.52;;;14.10;;
38843;SDS011;24596;48.080;8.362;2022-12-10T08:45:31;26.92;;;13.82;;
38843;SDS011;24596;48.080;8.362;2022-12-10T08:47:57;28.48;;;15.65;;
38843;SDS011;24596;48.080;8.362;2022-12-10T08:50:22;25.90;;;14.23;;
38843;SDS011;24596;48.080;8.362;2022-12-10T08:52:48;25.88;;;13.88;;
38843;SDS011;24596;48.080;8.362;2022-12-10T08:55:14;26.00;;;14.18;;
38843;SDS011;24596;48.080;8.362;2022-12-10T08:57:39;21.95;;;12.95;;
38843;SDS011;24596;48.080;8.362;2022-12-10T09:00:05;22.83;;;12.02;;
38843;SDS011;24596;48.080;8.362;2022-12-10T09:02:31;25.60;;;13.18;;
38843;SDS011;24596;48.080;8.362;2022-12-10T09:04:56;24.23;;;13.40;;
38843;SDS011;24596;48.080;8.362;2022-12-10T09:07:21;24.60;;;13.20;;
38843;SDS011;24596;48.080;8.362;2022-12-10T09:09:46;24.05;;;13.13;;
38843;SDS011;24596;48.080;8.362;2022-12-10T09:12:12;23.17;;;12.75;;
38843;SDS011;24596;48.080;8.362;2022-12-10T09:14:37;25.02;;;13.25;;
38843;SDS011;24596;48.080;8.362;2022-12-10T09:17:03;26.30;;;13.35;;
38843;SDS011;24596;48.080;8.362;2022-12-10T09:19:29;27.73;;;13.77;;
38843;SDS011;24596;48.080;8.362;2022-12-10T09:21:54;25.90;;;13.68;;
38843;SDS011;24596;48.080;8.362;2022-12-10T09:24:19;28.65;;;15.25;;
38843;SDS011;24596;48.080;8.362;2022-12-10T09:26:44;25.13;;;14.35;;
38843;SDS011;24596;48.080;8.362;2022-12-10T09:29:10;29.10;;;13.73;;
38843;SDS011;24596;48.080;8.362;2022-12-10T09:31:35;25.95;;;14.07;;
38843;SDS011;24596;48.080;8.362;2022-12-10T09:34:00;23.20;;;13.25;;
38843;SDS011;24596;48.080;8.362;2022-12-10T09:36:25;24.23;;;12.98;;
38843;SDS011;24596;48.080;8.362;2022-12-10T09:38:51;24.92;;;13.80;;
38843;SDS011;24596;48.080;8.362;2022-12-10T09:41:31;25.75;;;14.52;;
38843;SDS011;24596;48.080;8.362;2022-12-10T09:46:53;25.42;;;13.00;;
38843;SDS011;24596;48.080;8.362;2022-12-10T09:49:23;25.55;;;12.85;;
38843;SDS011;24596;48.080;8.362;2022-12-10T09:51:54;25.33;;;13.77;;
38843;SDS011;24596;48.080;8.362;2022-12-10T09:56:54;26.85;;;14.38;;
38843;SDS011;24596;48.080;8.362;2022-12-10T09:59:21;23.58;;;13.57;;
38843;SDS011;24596;48.080;8.362;2022-12-10T10:01:49;26.17;;;14.93;;
38843;SDS011;24596;48.080;8.362;2022-12-10T10:04:15;25.45;;;14.65;;
38843;SDS011;24596;48.080;8.362;2022-12-10T10:06:41;25.48;;;14.10;;
38843;SDS011;24596;48.080;8.362;2022-12-10T10:09:06;28.13;;;14.23;;
38843;SDS011;24596;48.080;8.362;2022-12-10T10:11:35;25.77;;;14.93;;
38843;SDS011;24596;48.080;8.362;2022-12-10T10:14:01;23.90;;;12.88;;
38843;SDS011;24596;48.080;8.362;2022-12-10T10:16:39;30.08;;;16.27;;
38843;SDS011;24596;48.080;8.362;2022-12-10T10:19:18;30.88;;;15.35;;
38843;SDS011;24596;48.080;8.362;2022-12-10T10:21:46;28.00;;;15.57;;
38843;SDS011;24596;48.080;8.362;2022-12-10T10:24:12;25.00;;;14.00;;
38843;SDS011;24596;48.080;8.362;2022-12-10T10:26:38;29.95;;;16.80;;
38843;SDS011;24596;48.080;8.362;2022-12-10T10:29:07;28.88;;;15.73;;
38843;SDS011;24596;48.080;8.362;2022-12-10T10:31:34;27.45;;;14.65;;
38843;SDS011;24596;48.080;8.362;2022-12-10T10:34:02;25.70;;;14.75;;
38843;SDS011;24596;48.080;8.362;2022-12-10T10:36:29;31.38;;;15.93;;
38843;SDS011;24596;48.080;8.362;2022-12-10T10:38:55;25.55;;;13.23;;
38843;SDS011;24596;48.080;8.362;2022-12-10T10:41:20;30.77;;;14.13;;
38843;SDS011;24596;48.080;8.362;2022-12-10T10:43:46;32.53;;;15.15;;
38843;SDS011;24596;48.080;8.362;2022-12-10T10:46:22;80.05;;;19.02;;
38843;SDS011;24596;48.080;8.362;2022-12-10T10:48:47;26.80;;;12.52;;
38843;SDS011;24596;48.080;8.362;2022-12-10T10:53:44;47.53;;;21.77;;
38843;SDS011;24596;48.080;8.362;2022-12-10T10:56:20;38.50;;;19.05;;
38843;SDS011;24596;48.080;8.362;2022-12-10T11:01:14;34.63;;;17.90;;
38843;SDS011;24596;48.080;8.362;2022-12-10T11:03:45;31.77;;;15.75;;
38843;SDS011;24596;48.080;8.362;2022-12-10T11:06:11;41.80;;;18.30;;
38843;SDS011;24596;48.080;8.362;2022-12-10T11:08:37;29.33;;;15.40;;
38843;SDS011;24596;48.080;8.362;2022-12-10T11:11:04;27.98;;;14.93;;
38843;SDS011;24596;48.080;8.362;2022-12-10T11:13:31;25.42;;;15.02;;
38843;SDS011;24596;48.080;8.362;2022-12-10T11:15:58;30.95;;;16.00;;
38843;SDS011;24596;48.080;8.362;2022-12-10T11:20:57;28.98;;;16.23;;
38843;SDS011;24596;48.080;8.362;2022-12-10T11:23:22;26.60;;;13.82;;
38843;SDS011;24596;48.080;8.362;2022-12-10T11:25:55;29.63;;;16.05;;
38843;SDS011;24596;48.080;8.362;2022-12-10T11:28:36;32.95;;;18.52;;
38843;SDS011;24596;48.080;8.362;2022-12-10T11:31:12;25.70;;;13.38;;
38843;SDS011;24596;48.080;8.362;2022-12-10T11:43:48;21.73;;;11.48;;
38843;SDS011;24596;48.080;8.362;2022-12-10T11:51:35;25.92;;;12.90;;
38843;SDS011;24596;48.080;8.362;2022-12-10T11:56:43;21.95;;;11.50;;
38843;SDS011;24596;48.080;8.362;2022-12-10T12:01:54;25.45;;;12.50;;
38843;SDS011;24596;48.080;8.362;2022-12-10T12:04:25;21.13;;;10.95;;
38843;SDS011;24596;48.080;8.362;2022-12-10T12:06:55;21.98;;;10.48;;
38843;SDS011;24596;48.080;8.362;2022-12-10T12:16:57;17.13;;;8.88;;
38843;SDS011;24596;48.080;8.362;2022-12-10T12:21:55;21.93;;;10.47;;
38843;SDS011;24596;48.080;8.362;2022-12-10T12:24:25;19.67;;;10.23;;
38843;SDS011;24596;48.080;8.362;2022-12-10T12:27:00;17.60;;;9.75;;
38843;SDS011;24596;48.080;8.362;2022-12-10T12:29:30;17.40;;;7.95;;
38843;SDS011;24596;48.080;8.362;2022-12-10T12:37:45;15.02;;;8.02;;
38843;SDS011;24596;48.080;8.362;2022-12-10T12:42:46;12.38;;;6.43;;
38843;SDS011;24596;48.080;8.362;2022-12-10T12:45:20;15.25;;;7.05;;
38843;SDS011;24596;48.080;8.362;2022-12-10T12:47:47;14.50;;;8.00;;
38843;SDS011;24596;48.080;8.362;2022-12-10T12:50:23;16.13;;;7.07;;
38843;SDS011;24596;48.080;8.362;2022-12-10T12:52:51;14.60;;;7.10;;
38843;SDS011;24596;48.080;8.362;2022-12-10T12:55:22;15.77;;;7.32;;
38843;SDS011;24596;48.080;8.362;2022-12-10T12:57:51;15.00;;;7.90;;
38843;SDS011;24596;48.080;8.362;2022-12-10T13:00:19;16.25;;;8.15;;
38843;SDS011;24596;48.080;8.362;2022-12-10T13:02:53;19.33;;;8.43;;
38843;SDS011;24596;48.080;8.362;2022-12-10T13:05:25;16.92;;;8.80;;
38843;SDS011;24596;48.080;8.362;2022-12-10T13:10:51;17.58;;;9.45;;
38843;SDS011;24596;48.080;8.362;2022-12-10T13:13:28;20.13;;;10.60;;
38843;SDS011;24596;48.080;8.362;2022-12-10T13:15:54;19.20;;;10.55;;
38843;SDS011;24596;48.080;8.362;2022-12-10T13:18:33;20.58;;;10.85;;
38843;SDS011;24596;48.080;8.362;2022-12-10T13:26:22;20.20;;;10.50;;
38843;SDS011;24596;48.080;8.362;2022-12-10T13:34:18;18.33;;;10.25;;
38843;SDS011;24596;48.080;8.362;2022-12-10T13:41:39;21.60;;;10.93;;
38843;SDS011;24596;48.080;8.362;2022-12-10T13:44:25;21.45;;;10.80;;
38843;SDS011;24596;48.080;8.362;2022-12-10T13:46:57;21.15;;;11.98;;
38843;SDS011;24596;48.080;8.362;2022-12-10T13:49:24;22.33;;;12.35;;
38843;SDS011;24596;48.080;8.362;2022-12-10T13:52:05;23.13;;;13.20;;
38843;SDS011;24596;48.080;8.362;2022-12-10T13:57:30;24.92;;;11.98;;
38843;SDS011;24596;48.080;8.362;2022-12-10T14:00:08;25.80;;;12.25;;
38843;SDS011;24596;48.080;8.362;2022-12-10T14:05:18;38.33;;;18.23;;
38843;SDS011;24596;48.080;8.362;2022-12-10T14:07:47;43.67;;;19.08;;
38843;SDS011;24596;48.080;8.362;2022-12-10T14:10:14;36.15;;;16.02;;
38843;SDS011;24596;48.080;8.362;2022-12-10T14:12:40;35.97;;;15.52;;
38843;SDS011;24596;48.080;8.362;2022-12-10T14:15:27;31.48;;;14.73;;
38843;SDS011;24596;48.080;8.362;2022-12-10T14:17:59;49.28;;;24.55;;
38843;SDS011;24596;48.080;8.362;2022-12-10T14:20:25;36.40;;;17.33;;
38843;SDS011;24596;48.080;8.362;2022-12-10T14:22:51;34.53;;;17.80;;
38843;SDS011;24596;48.080;8.362;2022-12-10T14:25:19;29.85;;;14.95;;
38843;SDS011;24596;48.080;8.362;2022-12-10T14:27:48;36.03;;;18.58;;
38843;SDS011;24596;48.080;8.362;2022-12-10T14:30:16;26.95;;;14.05;;
38843;SDS011;24596;48.080;8.362;2022-12-10T14:32:41;25.42;;;14.88;;
38843;SDS011;24596;48.080;8.362;2022-12-10T14:35:11;25.25;;;14.38;;
38843;SDS011;24596;48.080;8.362;2022-12-10T14:37:37;28.67;;;14.02;;
38843;SDS011;24596;48.080;8.362;2022-12-10T14:40:05;24.50;;;13.82;;
38843;SDS011;24596;48.080;8.362;2022-12-10T14:42:32;21.40;;;12.07;;
38843;SDS011;24596;48.080;8.362;2022-12-10T14:44:58;27.65;;;12.90;;
38843;SDS011;24596;48.080;8.362;2022-12-10T14:47:23;20.20;;;10.60;;
38843;SDS011;24596;48.080;8.362;2022-12-10T14:49:51;19.70;;;9.93;;
38843;SDS011;24596;48.080;8.362;2022-12-10T14:52:17;20.48;;;10.02;;
38843;SDS011;24596;48.080;8.362;2022-12-10T14:54:43;16.67;;;9.07;;
38843;SDS011;24596;48.080;8.362;2022-12-10T14:57:12;19.00;;;10.05;;
38843;SDS011;24596;48.080;8.362;2022-12-10T14:59:44;22.60;;;11.95;;
38843;SDS011;24596;48.080;8.362;2022-12-10T15:02:16;18.70;;;9.80;;
38843;SDS011;24596;48.080;8.362;2022-12-10T15:04:45;20.45;;;9.32;;
38843;SDS011;24596;48.080;8.362;2022-12-10T15:07:17;21.42;;;11.32;;
38843;SDS011;24596;48.080;8.362;2022-12-10T15:09:43;15.20;;;6.97;;
38843;SDS011;24596;48.080;8.362;2022-12-10T15:12:15;18.00;;;8.98;;
38843;SDS011;24596;48.080;8.362;2022-12-10T15:14:43;17.73;;;8.40;;
38843;SDS011;24596;48.080;8.362;2022-12-10T15:17:30;18.38;;;8.75;;
38843;SDS011;24596;48.080;8.362;2022-12-10T15:19:53;17.80;;;8.95;;
38843;SDS011;24596;48.080;8.362;2022-12-10T15:22:19;16.08;;;8.80;;
38843;SDS011;24596;48.080;8.362;2022-12-10T15:24:45;15.23;;;8.10;;
38843;SDS011;24596;48.080;8.362;2022-12-10T15:27:15;15.07;;;8.13;;
38843;SDS011;24596;48.080;8.362;2022-12-10T15:29:42;13.60;;;6.72;;
38843;SDS011;24596;48.080;8.362;2022-12-10T15:32:14;14.70;;;6.85;;
38843;SDS011;24596;48.080;8.362;2022-12-10T15:34:43;13.60;;;6.88;;
38843;SDS011;24596;48.080;8.362;2022-12-10T15:37:14;15.85;;;7.68;;
38843;SDS011;24596;48.080;8.362;2022-12-10T15:39:45;16.70;;;9.23;;
38843;SDS011;24596;48.080;8.362;2022-12-10T15:44:54;17.83;;;8.02;;
38843;SDS011;24596;48.080;8.362;2022-12-10T15:47:20;13.48;;;7.40;;
38843;SDS011;24596;48.080;8.362;2022-12-10T15:49:46;13.02;;;6.85;;
38843;SDS011;24596;48.080;8.362;2022-12-10T15:52:16;13.90;;;7.75;;
38843;SDS011;24596;48.080;8.362;2022-12-10T15:54:42;15.45;;;9.13;;
38843;SDS011;24596;48.080;8.362;2022-12-10T15:59:46;25.50;;;14.57;;
38843;SDS011;24596;48.080;8.362;2022-12-10T16:04:40;21.08;;;13.55;;
38843;SDS011;24596;48.080;8.362;2022-12-10T16:07:07;16.08;;;8.95;;
38843;SDS011;24596;48.080;8.362;2022-12-10T16:09:32;13.32;;;7.32;;